Chalets de Dorado, Puerto Rico
Current Conditions -  °F | °C
As of 4:56 PM on Friday 24 Oct 2014 (Local Time) from TJSJ Reporting Station
Scattered Clouds Scattered Clouds  
Wind Chill: 89°   Ceiling: Unl
Heat Index: 97°   Visibility: 10mi
Dew Point: 73°   Wind: 9mph
Humidity: 59%   Direction: 130°SE
Pressure: 29.87"   Gusts: NA
Location:  18.4598°N, 66.2592°W
Report Text: TJSJ 242056Z 13008KT 10SM FEW038 SCT150 32/23 A2987 RMK AO2 SLP112 T03170228 55004
Loading
Personal Weather Stations






























Interactive Weather Map
Tropical Storm Tracking
New forecast layout! Learn more

10-Day Weather Forecast

Advertisements
Track Severe Weather on mobile